createdAt,value
2018-02-01T00:02:11.646Z,99397.77
2018-02-01T00:04:46.585Z,99393.89
2018-02-01T00:07:21.622Z,99387.56
2018-02-01T00:09:56.706Z,99384.53
2018-02-01T00:12:31.582Z,99387.05
2018-02-01T00:15:06.610Z,99388.63
2018-02-01T00:17:41.741Z,99388.20
2018-02-01T00:20:16.575Z,99390.40
2018-02-01T00:22:51.579Z,99387.36
2018-02-01T00:25:26.410Z,99385.54
2018-02-01T00:28:01.396Z,99384.21
2018-02-01T00:30:36.318Z,99377.19
2018-02-01T00:33:11.139Z,99384.91
2018-02-01T00:35:51.653Z,99387.73
2018-02-01T00:38:26.320Z,99388.63
2018-02-01T00:41:01.462Z,99380.59
2018-02-01T00:43:36.796Z,99388.11
2018-02-01T00:46:12.330Z,99384.44
2018-02-01T00:48:47.272Z,99401.46
2018-02-01T00:51:22.543Z,99393.19
2018-02-01T00:53:57.346Z,99395.74
2018-02-01T00:56:32.430Z,99400.94
2018-02-01T00:59:07.767Z,99402.60
2018-02-01T01:01:42.922Z,99389.94
2018-02-01T01:04:17.512Z,99399.11
2018-02-01T01:06:52.855Z,99394.88
2018-02-01T01:09:27.578Z,99393.61
2018-02-01T01:12:03.051Z,99396.16
2018-02-01T01:14:38.547Z,99392.16
2018-02-01T01:17:13.479Z,99392.46
2018-02-01T01:19:48.370Z,99394.80
2018-02-01T01:22:25.264Z,99392.48
2018-02-01T01:25:00.550Z,99385.95
2018-02-01T01:27:36.824Z,99390.32
2018-02-01T01:30:11.550Z,99390.50
2018-02-01T01:32:46.629Z,99393.82
2018-02-01T01:35:21.458Z,99391.16
2018-02-01T01:37:56.419Z,99390.16
2018-02-01T01:40:31.025Z,99387.23
2018-02-01T01:43:05.941Z,99388.30
2018-02-01T01:45:40.308Z,99390.75
2018-02-01T01:48:15.891Z,99384.69
2018-02-01T01:50:50.911Z,99389.48
2018-02-01T01:53:25.662Z,99397.28
2018-02-01T01:56:00.615Z,99381.97
2018-02-01T01:58:36.870Z,99379.05
2018-02-01T02:01:11.898Z,99391.27
2018-02-01T02:03:46.810Z,99379.51
2018-02-01T02:06:21.875Z,99389.42
2018-02-01T02:08:56.687Z,99369.49
2018-02-01T02:11:31.696Z,99376.77
2018-02-01T02:14:06.747Z,99370.83
2018-02-01T02:16:41.816Z,99375.07
2018-02-01T02:19:16.407Z,99373.11
2018-02-01T02:21:51.068Z,99367.93
2018-02-01T02:24:25.710Z,99357.47
2018-02-01T02:27:00.841Z,99351.56
2018-02-01T02:29:36.746Z,99356.88
2018-02-01T02:32:11.143Z,99335.99
2018-02-01T02:34:46.630Z,99343.04
2018-02-01T02:37:21.716Z,99348.62
2018-02-01T02:39:56.733Z,99347.84
2018-02-01T02:42:31.763Z,99347.09
2018-02-01T02:45:06.595Z,99349.62
2018-02-01T02:47:41.932Z,99337.78
2018-02-01T02:50:16.739Z,99341.77
2018-02-01T02:52:51.992Z,99349.86
2018-02-01T02:55:26.950Z,99355.63
2018-02-01T02:58:01.908Z,99344.16
2018-02-01T03:00:37.038Z,99332.84
2018-02-01T03:03:11.787Z,99333.35
2018-02-01T03:05:46.747Z,99339.91
2018-02-01T03:08:21.786Z,99337.26
2018-02-01T03:10:56.664Z,99333.65
2018-02-01T03:13:31.789Z,99335.81
2018-02-01T03:16:06.690Z,99330.18
2018-02-01T03:18:41.765Z,99327.89
2018-02-01T03:21:16.778Z,99334.53
2018-02-01T03:23:51.656Z,99329.42
2018-02-01T03:26:26.731Z,99334.96
2018-02-01T03:29:02.280Z,99346.55
2018-02-01T03:31:37.471Z,99348.28
2018-02-01T03:34:12.864Z,99348.71
2018-02-01T03:36:48.031Z,99343.45
2018-02-01T03:39:22.910Z,99346.92
2018-02-01T03:41:57.782Z,99343.50
2018-02-01T03:44:32.786Z,99342.50
2018-02-01T03:47:07.867Z,99345.99
2018-02-01T03:49:43.094Z,99346.05
2018-02-01T03:52:18.130Z,99332.82
2018-02-01T03:54:53.270Z,99346.54
2018-02-01T03:57:27.878Z,99341.16
2018-02-01T04:00:02.934Z,99351.78
2018-02-01T04:02:38.384Z,99351.09
2018-02-01T04:05:13.004Z,99351.91
2018-02-01T04:07:49.382Z,99344.20
2018-02-01T04:10:24.082Z,99352.06
2018-02-01T04:12:59.051Z,99350.59
2018-02-01T04:15:34.058Z,99350.36
2018-02-01T04:18:09.038Z,99354.21
2018-02-01T04:20:43.518Z,99355.62
2018-02-01T04:23:18.454Z,99357.64
2018-02-01T04:25:53.578Z,99358.59
2018-02-01T04:28:28.052Z,99362.18
2018-02-01T04:31:03.036Z,99357.88
2018-02-01T04:33:38.310Z,99362.06
2018-02-01T04:36:13.015Z,99354.91
2018-02-01T04:38:48.157Z,99359.52
2018-02-01T04:41:23.062Z,99370.67
2018-02-01T04:43:58.020Z,99348.88
2018-02-01T04:46:33.098Z,99352.13
2018-02-01T04:49:07.810Z,99353.95
2018-02-01T04:51:43.424Z,99352.96
2018-02-01T04:54:18.994Z,99360.61
2018-02-01T04:56:53.420Z,99351.28
2018-02-01T04:59:28.463Z,99359.20
2018-02-01T05:02:03.258Z,99360.61
2018-02-01T05:04:38.199Z,99358.88
2018-02-01T05:07:13.267Z,99356.44
2018-02-01T05:09:48.654Z,99363.13
2018-02-01T05:12:23.314Z,99366.36
2018-02-01T05:14:58.359Z,99369.28
2018-02-01T05:17:32.994Z,99365.22
2018-02-01T05:20:08.298Z,99368.02
2018-02-01T05:22:43.306Z,99362.19
2018-02-01T05:25:18.312Z,99361.44
2018-02-01T05:27:54.598Z,99370.30
2018-02-01T05:30:29.271Z,99366.81
2018-02-01T05:33:04.210Z,99372.39
2018-02-01T05:35:39.663Z,99372.91
2018-02-01T05:38:15.106Z,99372.22
2018-02-01T05:40:50.210Z,99371.50
2018-02-01T05:43:25.172Z,99372.13
2018-02-01T05:46:00.239Z,99366.44
2018-02-01T05:48:34.584Z,99362.45
2018-02-01T05:51:09.596Z,99367.71
2018-02-01T05:53:44.661Z,99364.10
2018-02-01T05:56:19.518Z,99365.00
2018-02-01T05:58:54.700Z,99367.76
2018-02-01T06:01:30.008Z,99373.08
2018-02-01T06:04:05.071Z,99382.26
2018-02-01T06:06:40.266Z,99379.35
2018-02-01T06:09:15.223Z,99379.41
2018-02-01T06:11:50.202Z,99374.73
2018-02-01T06:14:25.282Z,99372.89
2018-02-01T06:17:00.027Z,99375.53
2018-02-01T06:19:35.242Z,99381.69
2018-02-01T06:22:10.215Z,99382.52
2018-02-01T06:24:45.514Z,99381.69
2018-02-01T06:27:20.252Z,99388.15
2018-02-01T06:29:55.224Z,99379.14
2018-02-01T06:32:30.190Z,99381.74
2018-02-01T06:35:05.291Z,99381.94
2018-02-01T06:37:40.582Z,99384.48
2018-02-01T06:40:15.402Z,99389.77
2018-02-01T06:42:50.582Z,99386.80
2018-02-01T06:45:25.447Z,99381.05
2018-02-01T06:48:00.225Z,99382.70
2018-02-01T06:50:35.256Z,99393.14
2018-02-01T06:53:10.318Z,99391.49
2018-02-01T06:55:45.531Z,99395.03
2018-02-01T06:58:19.910Z,99393.02
2018-02-01T07:00:55.716Z,99385.89
2018-02-01T07:03:31.278Z,99390.20
2018-02-01T07:06:06.272Z,99387.45
2018-02-01T07:08:40.894Z,99387.14
2018-02-01T07:11:16.394Z,99389.94
2018-02-01T07:13:51.560Z,99392.59
2018-02-01T07:16:26.462Z,99397.28
2018-02-01T07:19:01.431Z,99398.59
2018-02-01T07:21:37.762Z,99389.47
2018-02-01T07:24:13.247Z,99389.55
2018-02-01T07:26:48.347Z,99394.33
2018-02-01T07:29:23.411Z,99402.73
2018-02-01T07:31:58.403Z,99405.72
2018-02-01T07:34:33.560Z,99400.67
2018-02-01T07:37:08.606Z,99407.20
2018-02-01T07:39:43.778Z,99404.55
2018-02-01T07:42:18.712Z,99400.24
2018-02-01T07:44:53.710Z,99396.43
2018-02-01T07:47:27.988Z,99397.44
2018-02-01T07:50:02.496Z,99405.75
2018-02-01T07:52:37.839Z,99408.54
2018-02-01T07:55:14.376Z,99415.13
2018-02-01T07:57:49.566Z,99407.16
2018-02-01T08:00:23.604Z,99404.73
2018-02-01T08:02:58.868Z,99408.49
2018-02-01T08:05:33.942Z,99408.11
2018-02-01T08:08:09.419Z,99408.77
2018-02-01T08:10:44.459Z,99407.04
2018-02-01T08:13:19.438Z,99412.50
2018-02-01T08:15:54.070Z,99404.64
2018-02-01T08:18:29.455Z,99409.64
2018-02-01T08:21:04.141Z,99404.91
2018-02-01T08:23:39.748Z,99411.12
2018-02-01T08:26:14.558Z,99402.69
2018-02-01T08:28:49.125Z,99416.06
2018-02-01T08:31:24.022Z,99405.86
2018-02-01T08:33:58.884Z,99406.67
2018-02-01T08:36:33.811Z,99402.29
2018-02-01T08:39:08.266Z,99410.58
2018-02-01T08:41:43.751Z,99411.41
2018-02-01T08:44:18.651Z,99404.05
2018-02-01T08:46:53.484Z,99412.77
2018-02-01T08:49:28.633Z,99406.98
2018-02-01T08:52:03.399Z,99417.56
2018-02-01T08:54:38.642Z,99413.69
2018-02-01T08:57:13.622Z,99411.75
2018-02-01T08:59:48.808Z,99417.72
2018-02-01T09:02:23.659Z,99422.20
2018-02-01T09:04:58.671Z,99426.42
2018-02-01T09:07:33.660Z,99429.64
2018-02-01T09:10:08.620Z,99429.98
2018-02-01T09:12:43.139Z,99423.86
2018-02-01T09:15:18.007Z,99427.30
2018-02-01T09:17:52.959Z,99432.73
2018-02-01T09:20:28.178Z,99437.59
2018-02-01T09:23:03.052Z,99440.43
2018-02-01T09:25:38.112Z,99439.44
2018-02-01T09:28:13.014Z,99447.58
2018-02-01T09:30:47.732Z,99441.42
2018-02-01T09:33:22.766Z,99446.14
2018-02-01T09:35:57.706Z,99448.02
2018-02-01T09:38:32.841Z,99444.45
2018-02-01T09:41:07.822Z,99439.55
2018-02-01T09:43:46.115Z,99448.95
2018-02-01T09:46:21.092Z,99439.24
2018-02-01T09:49:05.346Z,99436.56
2018-02-01T09:51:40.128Z,99432.92
2018-02-01T09:54:15.655Z,99441.33
2018-02-01T09:56:51.015Z,99439.37
2018-02-01T09:59:25.394Z,99432.44
2018-02-01T10:02:00.154Z,99429.34
2018-02-01T10:04:35.270Z,99435.91
2018-02-01T10:07:10.267Z,99426.27
2018-02-01T10:09:45.003Z,99430.84
2018-02-01T10:12:20.095Z,99418.02
2018-02-01T10:14:55.062Z,99421.14
2018-02-01T10:17:30.046Z,99421.78
2018-02-01T10:20:05.289Z,99424.70
2018-02-01T10:22:40.182Z,99422.30
2018-02-01T10:25:14.771Z,99427.23
2018-02-01T10:27:50.131Z,99436.20
2018-02-01T10:30:25.043Z,99424.80
2018-02-01T10:32:59.995Z,99428.87
2018-02-01T10:35:34.996Z,99431.14
2018-02-01T10:38:09.947Z,99435.02
2018-02-01T10:40:45.034Z,99437.91
2018-02-01T10:43:19.774Z,99446.41
2018-02-01T10:45:55.118Z,99441.70
2018-02-01T10:48:29.780Z,99445.42
2018-02-01T10:51:04.470Z,99445.85
2018-02-01T10:53:40.142Z,99438.75
2018-02-01T10:56:17.068Z,99441.48
2018-02-01T10:58:52.011Z,99435.55
2018-02-01T11:01:26.886Z,99431.19
2018-02-01T11:04:01.980Z,99421.52
2018-02-01T11:06:37.678Z,99422.88
2018-02-01T11:09:12.424Z,99418.80
2018-02-01T11:11:48.247Z,99412.73
2018-02-01T11:14:22.578Z,99415.41
2018-02-01T11:16:58.182Z,99405.52
2018-02-01T11:19:33.147Z,99427.13
2018-02-01T11:22:07.930Z,99404.33
2018-02-01T11:24:42.822Z,99423.70
2018-02-01T11:27:17.280Z,99399.70
2018-02-01T11:29:52.663Z,99403.35
2018-02-01T11:32:27.238Z,99407.72
2018-02-01T11:35:02.189Z,99396.83
2018-02-01T11:37:38.121Z,99393.39
2018-02-01T11:40:13.022Z,99398.97
2018-02-01T11:42:47.586Z,99385.91
2018-02-01T11:45:22.054Z,99392.09
2018-02-01T11:47:57.309Z,99385.14
2018-02-01T11:50:31.744Z,99381.01
2018-02-01T11:53:07.065Z,99382.88
2018-02-01T11:55:42.359Z,99385.33
2018-02-01T11:58:17.226Z,99392.94
2018-02-01T12:00:52.404Z,99385.59
2018-02-01T12:03:27.222Z,99378.17
2018-02-01T12:06:02.142Z,99366.52
2018-02-01T12:08:38.422Z,99371.83
2018-02-01T12:11:13.203Z,99376.20
2018-02-01T12:13:48.192Z,99374.73
2018-02-01T12:16:23.158Z,99376.17
2018-02-01T12:18:58.067Z,99362.28
2018-02-01T12:21:32.739Z,99370.06
2018-02-01T12:24:06.960Z,99384.11
2018-02-01T12:26:42.426Z,99387.79
2018-02-01T12:29:17.167Z,99389.67
2018-02-01T12:31:51.703Z,99396.86
2018-02-01T12:34:27.043Z,99391.11
2018-02-01T12:37:02.118Z,99402.77
2018-02-01T12:39:36.798Z,99400.42
2018-02-01T12:42:12.292Z,99397.70
2018-02-01T12:44:46.770Z,99400.20
2018-02-01T12:47:22.171Z,99412.41
2018-02-01T12:49:57.283Z,99404.20
2018-02-01T12:52:32.376Z,99401.34
2018-02-01T12:55:07.568Z,99400.11
2018-02-01T12:57:42.499Z,99398.90
2018-02-01T13:00:17.432Z,99402.71
2018-02-01T13:02:52.758Z,99400.27
2018-02-01T13:05:28.432Z,99402.44
2018-02-01T13:08:02.815Z,99407.70
2018-02-01T13:10:38.677Z,99409.06
2018-02-01T13:13:13.743Z,99413.77
2018-02-01T13:15:48.698Z,99417.37
2018-02-01T13:18:24.190Z,99412.19
2018-02-01T13:20:59.284Z,99406.42
2018-02-01T13:23:34.598Z,99413.13
2018-02-01T13:26:09.617Z,99409.44
2018-02-01T13:28:44.623Z,99405.09
2018-02-01T13:31:19.587Z,99408.57
2018-02-01T13:33:55.239Z,99407.23
2018-02-01T13:36:30.350Z,99409.94
2018-02-01T13:39:04.788Z,99408.66
2018-02-01T13:41:40.059Z,99414.70
2018-02-01T13:44:15.350Z,99401.29
2018-02-01T13:46:51.750Z,99399.15
2018-02-01T13:49:26.387Z,99396.33
2018-02-01T13:52:01.004Z,99406.40
2018-02-01T13:54:35.818Z,99403.55
2018-02-01T13:57:10.609Z,99403.83
2018-02-01T13:59:45.713Z,99401.72
2018-02-01T14:02:20.534Z,99405.87
2018-02-01T14:04:55.496Z,99402.18
2018-02-01T14:07:30.531Z,99394.27
2018-02-01T14:10:05.551Z,99395.62
2018-02-01T14:12:40.780Z,99390.66
2018-02-01T14:15:15.626Z,99397.59
2018-02-01T14:17:50.692Z,99397.49
2018-02-01T14:20:25.385Z,99395.27
2018-02-01T14:22:59.866Z,99398.28
2018-02-01T14:25:34.743Z,99402.21
2018-02-01T14:28:09.324Z,99396.33
2018-02-01T14:30:44.729Z,99402.09
2018-02-01T14:33:19.582Z,99404.23
2018-02-01T14:35:54.756Z,99391.27
2018-02-01T14:38:29.614Z,99396.86
2018-02-01T14:41:04.746Z,99395.39
2018-02-01T14:43:39.811Z,99400.40
2018-02-01T14:46:14.720Z,99394.13
2018-02-01T14:48:50.005Z,99402.41
2018-02-01T14:51:24.702Z,99396.74
2018-02-01T14:53:59.800Z,99404.09
2018-02-01T14:56:34.744Z,99394.58
2018-02-01T14:59:09.723Z,99392.31
2018-02-01T15:01:44.902Z,99393.95
2018-02-01T15:04:19.660Z,99401.30
2018-02-01T15:06:54.690Z,99398.33
2018-02-01T15:09:29.635Z,99399.05
2018-02-01T15:12:05.627Z,99399.48
2018-02-01T15:14:40.903Z,99400.44
2018-02-01T15:17:15.624Z,99401.53
2018-02-01T15:19:50.802Z,99401.66
2018-02-01T15:22:25.363Z,99394.45
2018-02-01T15:25:00.214Z,99411.05
2018-02-01T15:27:35.634Z,99409.08
2018-02-01T15:30:10.687Z,99416.29
2018-02-01T15:32:45.548Z,99422.79
2018-02-01T15:35:20.497Z,99419.84
2018-02-01T15:37:55.948Z,99418.55
2018-02-01T15:40:30.842Z,99420.38
2018-02-01T15:43:05.839Z,99419.52
2018-02-01T15:45:40.750Z,99426.61
2018-02-01T15:48:15.814Z,99425.98
2018-02-01T15:50:51.094Z,99418.95
2018-02-01T15:53:25.616Z,99422.42
2018-02-01T15:56:00.745Z,99419.27
2018-02-01T15:58:35.821Z,99424.81
2018-02-01T16:01:10.783Z,99418.58
2018-02-01T16:03:45.848Z,99420.97
2018-02-01T16:06:20.862Z,99428.03
2018-02-01T16:08:55.722Z,99420.66
2018-02-01T16:11:30.696Z,99426.83
2018-02-01T16:14:05.679Z,99429.98
2018-02-01T16:16:40.569Z,99425.34
2018-02-01T16:19:15.302Z,99428.13
2018-02-01T16:21:50.325Z,99430.88
2018-02-01T16:24:25.726Z,99435.66
2018-02-01T16:27:00.902Z,99427.82
2018-02-01T16:29:35.903Z,99429.22
2018-02-01T16:32:10.910Z,99431.23
2018-02-01T16:34:45.036Z,99431.51
2018-02-01T16:37:19.452Z,99437.30
2018-02-01T16:39:54.436Z,99434.17
2018-02-01T16:42:29.968Z,99439.25
2018-02-01T16:45:04.518Z,99429.30
2018-02-01T16:47:39.952Z,99434.83
2018-02-01T16:50:14.935Z,99433.23
2018-02-01T16:52:49.984Z,99434.95
2018-02-01T16:55:25.075Z,99435.97
2018-02-01T16:58:00.020Z,99440.73
2018-02-01T17:00:35.178Z,99447.47
2018-02-01T17:03:10.208Z,99457.79
2018-02-01T17:05:45.200Z,99459.99
2018-02-01T17:08:20.230Z,99457.91
2018-02-01T17:10:55.444Z,99457.61
2018-02-01T17:13:30.416Z,99464.11
2018-02-01T17:16:04.950Z,99449.74
2018-02-01T17:18:40.257Z,99450.80
2018-02-01T17:21:15.546Z,99457.90
2018-02-01T17:23:50.427Z,99460.29
2018-02-01T17:26:25.190Z,99453.13
2018-02-01T17:29:00.203Z,99447.34
2018-02-01T17:31:35.214Z,99440.79
2018-02-01T17:34:10.143Z,99441.03
2018-02-01T17:36:45.342Z,99447.97
2018-02-01T17:39:20.343Z,99446.07
2018-02-01T17:41:55.951Z,99458.86
2018-02-01T17:44:30.526Z,99461.70
2018-02-01T17:47:05.527Z,99466.07
2018-02-01T17:49:40.588Z,99480.86
2018-02-01T17:52:15.655Z,99479.27
2018-02-01T17:54:50.583Z,99476.61
2018-02-01T17:57:25.591Z,99471.71
2018-02-01T18:00:00.590Z,99481.23
2018-02-01T18:02:35.502Z,99483.37
2018-02-01T18:05:10.324Z,99485.42
2018-02-01T18:07:45.431Z,99484.85
2018-02-01T18:10:20.226Z,99493.61
2018-02-01T18:12:55.518Z,99497.34
2018-02-01T18:15:30.362Z,99499.78
2018-02-01T18:18:05.227Z,99504.73
2018-02-01T18:20:40.022Z,99502.38
2018-02-01T18:23:14.718Z,99500.70
2018-02-01T18:25:49.500Z,99514.03
2018-02-01T18:28:24.576Z,99516.01
2018-02-01T18:30:59.286Z,99524.20
2018-02-01T18:33:33.760Z,99521.72
2018-02-01T18:36:08.044Z,99519.06
2018-02-01T18:38:43.590Z,99522.73
2018-02-01T18:41:18.376Z,99521.09
2018-02-01T18:43:53.590Z,99529.73
2018-02-01T18:46:28.270Z,99526.06
2018-02-01T18:49:03.269Z,99527.39
2018-02-01T18:51:39.647Z,99533.59
2018-02-01T18:54:14.434Z,99531.05
2018-02-01T18:56:49.392Z,99536.26
2018-02-01T18:59:24.452Z,99533.34
2018-02-01T19:01:59.029Z,99536.58
2018-02-01T19:04:34.420Z,99542.10
2018-02-01T19:07:09.362Z,99542.86
2018-02-01T19:09:44.607Z,99542.16
2018-02-01T19:12:19.355Z,99537.53
2018-02-01T19:14:54.398Z,99538.41
2018-02-01T19:17:29.520Z,99542.71
2018-02-01T19:20:04.506Z,99540.43
2018-02-01T19:22:40.122Z,99543.17
2018-02-01T19:25:14.492Z,99540.12
2018-02-01T19:27:49.431Z,99536.05
2018-02-01T19:30:24.792Z,99537.89
2018-02-01T19:32:59.912Z,99533.47
2018-02-01T19:35:34.823Z,99539.66
2018-02-01T19:38:09.924Z,99536.63
2018-02-01T19:40:45.491Z,99536.55
2018-02-01T19:43:20.599Z,99532.24
2018-02-01T19:45:55.382Z,99533.19
2018-02-01T19:48:30.434Z,99543.52
2018-02-01T19:51:05.420Z,99545.02
2018-02-01T19:53:40.707Z,99533.42
2018-02-01T19:56:15.543Z,99538.15
2018-02-01T19:58:50.771Z,99530.72
2018-02-01T20:01:25.568Z,99523.19
2018-02-01T20:04:00.433Z,99524.90
2018-02-01T20:06:35.473Z,99530.86
2018-02-01T20:09:10.467Z,99525.77
2018-02-01T20:11:45.730Z,99528.42
2018-02-01T20:14:20.616Z,99517.86
2018-02-01T20:16:55.958Z,99523.03
2018-02-01T20:19:30.559Z,99504.98
2018-02-01T20:22:05.518Z,99519.69
2018-02-01T20:24:40.636Z,99525.70
2018-02-01T20:27:20.326Z,99522.72
2018-02-01T20:29:55.796Z,99516.13
2018-02-01T20:32:30.651Z,99512.50
2018-02-01T20:35:05.092Z,99527.80
2018-02-01T20:37:40.154Z,99525.42
2018-02-01T20:40:14.643Z,99520.36
2018-02-01T20:42:49.720Z,99521.75
2018-02-01T20:45:24.678Z,99530.69
2018-02-01T20:47:59.638Z,99530.94
2018-02-01T20:50:34.771Z,99533.22
2018-02-01T20:53:09.858Z,99538.41
2018-02-01T20:55:44.865Z,99535.39
2018-02-01T20:58:19.429Z,99542.30
2018-02-01T21:00:54.179Z,99537.67
2018-02-01T21:03:29.243Z,99541.86
2018-02-01T21:06:03.918Z,99537.36
2018-02-01T21:08:40.237Z,99539.13
2018-02-01T21:11:14.965Z,99538.30
2018-02-01T21:13:50.118Z,99545.13
2018-02-01T21:16:25.011Z,99551.92
2018-02-01T21:19:00.097Z,99552.20
2018-02-01T21:21:34.843Z,99552.41
2018-02-01T21:24:09.759Z,99547.60
2018-02-01T21:26:44.907Z,99552.27
2018-02-01T21:29:19.790Z,99548.74
2018-02-01T21:31:55.100Z,99540.55
2018-02-01T21:34:30.083Z,99541.70
2018-02-01T21:37:05.116Z,99549.27
2018-02-01T21:39:40.272Z,99550.30
2018-02-01T21:42:15.559Z,99548.04
2018-02-01T21:44:50.215Z,99553.96
2018-02-01T21:47:25.275Z,99546.88
2018-02-01T21:50:00.192Z,99541.30
2018-02-01T21:52:35.412Z,99545.34
2018-02-01T21:55:10.795Z,99544.84
2018-02-01T21:57:45.702Z,99548.02
2018-02-01T22:00:20.765Z,99548.89
2018-02-01T22:02:56.072Z,99545.85
2018-02-01T22:05:31.031Z,99542.44
2018-02-01T22:08:06.490Z,99548.56
2018-02-01T22:10:42.074Z,99554.51
2018-02-01T22:13:16.834Z,99548.16
2018-02-01T22:15:51.900Z,99545.99
2018-02-01T22:18:26.725Z,99550.95
2018-02-01T22:21:01.404Z,99551.28
2018-02-01T22:23:36.800Z,99551.80
2018-02-01T22:26:11.799Z,99553.50
2018-02-01T22:28:46.954Z,99558.55
2018-02-01T22:31:21.990Z,99564.57
2018-02-01T22:33:57.004Z,99590.83
2018-02-01T22:36:31.979Z,99561.17
2018-02-01T22:39:06.935Z,99564.54
2018-02-01T22:41:41.927Z,99562.23
2018-02-01T22:44:17.208Z,99556.98
2018-02-01T22:46:52.375Z,99557.50
2018-02-01T22:49:27.528Z,99561.35
2018-02-01T22:52:02.884Z,99555.22
2018-02-01T22:54:38.022Z,99567.83
2018-02-01T22:57:13.014Z,99557.88
2018-02-01T22:59:48.128Z,99560.50
2018-02-01T23:02:22.814Z,99551.52
2018-02-01T23:04:58.138Z,99556.68
2018-02-01T23:07:33.454Z,99556.63
2018-02-01T23:10:08.464Z,99557.65
2018-02-01T23:12:43.607Z,99556.91
2018-02-01T23:15:18.471Z,99557.36
2018-02-01T23:17:53.754Z,99552.70
2018-02-01T23:20:28.366Z,99555.23
2018-02-01T23:23:03.450Z,99555.75
2018-02-01T23:25:38.446Z,99551.05
2018-02-01T23:28:13.520Z,99548.34
2018-02-01T23:30:48.554Z,99541.88
2018-02-01T23:33:23.403Z,99536.67
2018-02-01T23:35:58.400Z,99544.03
2018-02-01T23:38:33.156Z,99538.97
2018-02-01T23:41:08.122Z,99546.06
2018-02-01T23:43:43.056Z,99544.50
2018-02-01T23:46:18.128Z,99535.77
2018-02-01T23:48:53.418Z,99536.24
2018-02-01T23:51:28.666Z,99531.13
2018-02-01T23:54:04.206Z,99530.11
2018-02-01T23:56:40.144Z,99524.22
2018-02-01T23:59:15.086Z,99525.94
